sensor_id;sensor_type;location;lat;lon;timestamp;P1;durP1;ratioP1;P2;durP2;ratioP2
63370;SDS011;72561;48.336;14.472;2024-01-10T00:01:12;7.95;;;6.30;;
63370;SDS011;72561;48.336;14.472;2024-01-10T00:02:53;8.70;;;6.82;;
63370;SDS011;72561;48.336;14.472;2024-01-10T00:04:35;7.50;;;5.65;;
63370;SDS011;72561;48.336;14.472;2024-01-10T00:06:16;7.53;;;5.50;;
63370;SDS011;72561;48.336;14.472;2024-01-10T00:07:57;8.32;;;5.60;;
63370;SDS011;72561;48.336;14.472;2024-01-10T00:09:39;8.43;;;6.50;;
63370;SDS011;72561;48.336;14.472;2024-01-10T00:11:20;6.53;;;5.32;;
63370;SDS011;72561;48.336;14.472;2024-01-10T00:13:01;7.25;;;5.65;;
63370;SDS011;72561;48.336;14.472;2024-01-10T00:14:42;9.75;;;5.40;;
63370;SDS011;72561;48.336;14.472;2024-01-10T00:16:23;7.30;;;5.75;;
63370;SDS011;72561;48.336;14.472;2024-01-10T00:18:04;7.18;;;5.70;;
63370;SDS011;72561;48.336;14.472;2024-01-10T00:19:47;7.32;;;5.60;;
63370;SDS011;72561;48.336;14.472;2024-01-10T00:21:28;8.15;;;6.13;;
63370;SDS011;72561;48.336;14.472;2024-01-10T00:23:09;7.75;;;5.63;;
63370;SDS011;72561;48.336;14.472;2024-01-10T00:24:50;7.13;;;5.35;;
63370;SDS011;72561;48.336;14.472;2024-01-10T00:26:31;7.45;;;5.50;;
63370;SDS011;72561;48.336;14.472;2024-01-10T00:28:12;7.70;;;5.68;;
63370;SDS011;72561;48.336;14.472;2024-01-10T00:29:54;7.05;;;5.40;;
63370;SDS011;72561;48.336;14.472;2024-01-10T00:31:35;7.85;;;5.80;;
63370;SDS011;72561;48.336;14.472;2024-01-10T00:33:16;7.70;;;5.63;;
63370;SDS011;72561;48.336;14.472;2024-01-10T00:34:58;7.28;;;5.55;;
63370;SDS011;72561;48.336;14.472;2024-01-10T00:36:40;7.22;;;5.85;;
63370;SDS011;72561;48.336;14.472;2024-01-10T00:38:21;7.40;;;5.60;;
63370;SDS011;72561;48.336;14.472;2024-01-10T00:40:02;7.15;;;5.00;;
63370;SDS011;72561;48.336;14.472;2024-01-10T00:41:44;7.35;;;5.75;;
63370;SDS011;72561;48.336;14.472;2024-01-10T00:43:26;8.48;;;6.13;;
63370;SDS011;72561;48.336;14.472;2024-01-10T00:45:07;7.38;;;5.25;;
63370;SDS011;72561;48.336;14.472;2024-01-10T00:46:49;7.63;;;5.78;;
63370;SDS011;72561;48.336;14.472;2024-01-10T00:48:30;7.85;;;5.75;;
63370;SDS011;72561;48.336;14.472;2024-01-10T00:50:12;7.10;;;5.47;;
63370;SDS011;72561;48.336;14.472;2024-01-10T00:51:53;7.40;;;5.38;;
63370;SDS011;72561;48.336;14.472;2024-01-10T00:53:35;6.85;;;5.13;;
63370;SDS011;72561;48.336;14.472;2024-01-10T00:55:16;7.65;;;5.22;;
63370;SDS011;72561;48.336;14.472;2024-01-10T00:56:57;8.05;;;5.80;;
63370;SDS011;72561;48.336;14.472;2024-01-10T00:58:38;8.65;;;5.95;;
63370;SDS011;72561;48.336;14.472;2024-01-10T01:00:19;7.53;;;5.68;;
63370;SDS011;72561;48.336;14.472;2024-01-10T01:02:01;7.10;;;5.37;;
63370;SDS011;72561;48.336;14.472;2024-01-10T01:03:42;8.20;;;6.15;;
63370;SDS011;72561;48.336;14.472;2024-01-10T01:05:24;7.15;;;5.32;;
63370;SDS011;72561;48.336;14.472;2024-01-10T01:07:05;7.63;;;5.40;;
63370;SDS011;72561;48.336;14.472;2024-01-10T01:08:46;6.93;;;5.07;;
63370;SDS011;72561;48.336;14.472;2024-01-10T01:10:28;6.82;;;5.03;;
63370;SDS011;72561;48.336;14.472;2024-01-10T01:12:10;7.60;;;5.80;;
63370;SDS011;72561;48.336;14.472;2024-01-10T01:13:51;7.20;;;5.10;;
63370;SDS011;72561;48.336;14.472;2024-01-10T01:15:32;7.20;;;5.40;;
63370;SDS011;72561;48.336;14.472;2024-01-10T01:17:13;10.95;;;5.70;;
63370;SDS011;72561;48.336;14.472;2024-01-10T01:18:54;7.05;;;5.65;;
63370;SDS011;72561;48.336;14.472;2024-01-10T01:20:37;6.65;;;5.25;;
63370;SDS011;72561;48.336;14.472;2024-01-10T01:22:18;6.90;;;4.88;;
63370;SDS011;72561;48.336;14.472;2024-01-10T01:23:59;7.13;;;5.18;;
63370;SDS011;72561;48.336;14.472;2024-01-10T01:25:40;6.53;;;4.85;;
63370;SDS011;72561;48.336;14.472;2024-01-10T01:27:22;6.93;;;5.43;;
63370;SDS011;72561;48.336;14.472;2024-01-10T01:29:03;6.60;;;4.72;;
63370;SDS011;72561;48.336;14.472;2024-01-10T01:30:44;7.50;;;5.13;;
63370;SDS011;72561;48.336;14.472;2024-01-10T01:32:25;7.30;;;5.35;;
63370;SDS011;72561;48.336;14.472;2024-01-10T01:34:06;6.28;;;4.50;;
63370;SDS011;72561;48.336;14.472;2024-01-10T01:35:49;6.18;;;4.88;;
63370;SDS011;72561;48.336;14.472;2024-01-10T01:37:30;7.60;;;5.45;;
63370;SDS011;72561;48.336;14.472;2024-01-10T01:39:11;6.80;;;5.15;;
63370;SDS011;72561;48.336;14.472;2024-01-10T01:40:52;7.10;;;4.97;;
63370;SDS011;72561;48.336;14.472;2024-01-10T01:42:33;7.75;;;5.65;;
63370;SDS011;72561;48.336;14.472;2024-01-10T01:44:14;6.78;;;4.97;;
63370;SDS011;72561;48.336;14.472;2024-01-10T01:45:55;6.88;;;5.00;;
63370;SDS011;72561;48.336;14.472;2024-01-10T01:47:38;7.20;;;5.50;;
63370;SDS011;72561;48.336;14.472;2024-01-10T01:49:19;6.72;;;4.93;;
63370;SDS011;72561;48.336;14.472;2024-01-10T01:51:02;7.05;;;5.28;;
63370;SDS011;72561;48.336;14.472;2024-01-10T01:52:46;6.22;;;4.70;;
63370;SDS011;72561;48.336;14.472;2024-01-10T01:54:27;7.38;;;5.45;;
63370;SDS011;72561;48.336;14.472;2024-01-10T01:56:11;7.00;;;5.25;;
63370;SDS011;72561;48.336;14.472;2024-01-10T01:57:53;6.78;;;5.05;;
63370;SDS011;72561;48.336;14.472;2024-01-10T01:59:35;7.45;;;5.40;;
63370;SDS011;72561;48.336;14.472;2024-01-10T02:01:16;7.40;;;5.45;;
63370;SDS011;72561;48.336;14.472;2024-01-10T02:02:58;6.13;;;4.78;;
63370;SDS011;72561;48.336;14.472;2024-01-10T02:04:40;6.93;;;5.20;;
63370;SDS011;72561;48.336;14.472;2024-01-10T02:06:22;6.65;;;4.97;;
63370;SDS011;72561;48.336;14.472;2024-01-10T02:08:04;6.68;;;5.25;;
63370;SDS011;72561;48.336;14.472;2024-01-10T02:09:45;7.30;;;5.32;;
63370;SDS011;72561;48.336;14.472;2024-01-10T02:11:26;6.38;;;4.65;;
63370;SDS011;72561;48.336;14.472;2024-01-10T02:13:08;6.40;;;5.07;;
63370;SDS011;72561;48.336;14.472;2024-01-10T02:14:49;7.80;;;5.55;;
63370;SDS011;72561;48.336;14.472;2024-01-10T02:16:30;6.38;;;4.88;;
63370;SDS011;72561;48.336;14.472;2024-01-10T02:18:11;6.88;;;4.88;;
63370;SDS011;72561;48.336;14.472;2024-01-10T02:20:07;6.88;;;4.90;;
63370;SDS011;72561;48.336;14.472;2024-01-10T02:21:50;6.75;;;4.43;;
63370;SDS011;72561;48.336;14.472;2024-01-10T02:23:31;6.25;;;4.32;;
63370;SDS011;72561;48.336;14.472;2024-01-10T02:25:14;6.13;;;4.85;;
63370;SDS011;72561;48.336;14.472;2024-01-10T02:26:55;6.53;;;4.82;;
63370;SDS011;72561;48.336;14.472;2024-01-10T02:28:36;5.80;;;4.50;;
63370;SDS011;72561;48.336;14.472;2024-01-10T02:30:17;6.70;;;5.05;;
63370;SDS011;72561;48.336;14.472;2024-01-10T02:31:59;8.00;;;5.30;;
63370;SDS011;72561;48.336;14.472;2024-01-10T02:33:40;7.45;;;5.32;;
63370;SDS011;72561;48.336;14.472;2024-01-10T02:35:21;6.25;;;4.72;;
63370;SDS011;72561;48.336;14.472;2024-01-10T02:37:40;6.72;;;4.40;;
63370;SDS011;72561;48.336;14.472;2024-01-10T02:39:21;6.65;;;5.00;;
63370;SDS011;72561;48.336;14.472;2024-01-10T02:41:02;6.50;;;4.87;;
63370;SDS011;72561;48.336;14.472;2024-01-10T02:42:44;6.53;;;4.37;;
63370;SDS011;72561;48.336;14.472;2024-01-10T02:44:25;6.25;;;4.68;;
63370;SDS011;72561;48.336;14.472;2024-01-10T02:46:06;6.47;;;4.72;;
63370;SDS011;72561;48.336;14.472;2024-01-10T02:47:47;6.65;;;4.88;;
63370;SDS011;72561;48.336;14.472;2024-01-10T02:49:28;6.60;;;4.97;;
63370;SDS011;72561;48.336;14.472;2024-01-10T02:51:09;5.80;;;4.32;;
63370;SDS011;72561;48.336;14.472;2024-01-10T02:52:52;6.28;;;4.68;;
63370;SDS011;72561;48.336;14.472;2024-01-10T02:54:33;6.18;;;4.75;;
63370;SDS011;72561;48.336;14.472;2024-01-10T02:56:14;6.25;;;4.70;;
63370;SDS011;72561;48.336;14.472;2024-01-10T02:57:55;6.45;;;4.43;;
63370;SDS011;72561;48.336;14.472;2024-01-10T02:59:36;6.25;;;4.55;;
63370;SDS011;72561;48.336;14.472;2024-01-10T03:01:17;7.65;;;5.20;;
63370;SDS011;72561;48.336;14.472;2024-01-10T03:02:59;6.30;;;4.90;;
63370;SDS011;72561;48.336;14.472;2024-01-10T03:04:40;6.30;;;4.75;;
63370;SDS011;72561;48.336;14.472;2024-01-10T03:06:22;7.22;;;4.95;;
63370;SDS011;72561;48.336;14.472;2024-01-10T03:08:05;5.93;;;4.38;;
63370;SDS011;72561;48.336;14.472;2024-01-10T03:09:46;6.35;;;4.22;;
63370;SDS011;72561;48.336;14.472;2024-01-10T03:11:28;6.27;;;4.67;;
63370;SDS011;72561;48.336;14.472;2024-01-10T03:13:09;5.97;;;4.38;;
63370;SDS011;72561;48.336;14.472;2024-01-10T03:14:50;6.80;;;4.63;;
63370;SDS011;72561;48.336;14.472;2024-01-10T03:16:31;6.32;;;4.10;;
63370;SDS011;72561;48.336;14.472;2024-01-10T03:18:12;6.77;;;4.63;;
63370;SDS011;72561;48.336;14.472;2024-01-10T03:19:54;6.47;;;4.90;;
63370;SDS011;72561;48.336;14.472;2024-01-10T03:21:35;6.72;;;4.72;;
63370;SDS011;72561;48.336;14.472;2024-01-10T03:23:17;5.55;;;4.13;;
63370;SDS011;72561;48.336;14.472;2024-01-10T03:24:59;5.90;;;4.28;;
63370;SDS011;72561;48.336;14.472;2024-01-10T03:26:40;7.65;;;4.15;;
63370;SDS011;72561;48.336;14.472;2024-01-10T03:28:22;6.90;;;4.55;;
63370;SDS011;72561;48.336;14.472;2024-01-10T03:30:04;6.78;;;4.40;;
63370;SDS011;72561;48.336;14.472;2024-01-10T03:31:47;5.93;;;4.43;;
63370;SDS011;72561;48.336;14.472;2024-01-10T03:33:28;8.15;;;4.55;;
63370;SDS011;72561;48.336;14.472;2024-01-10T03:35:10;7.90;;;4.57;;
63370;SDS011;72561;48.336;14.472;2024-01-10T03:36:51;6.87;;;4.77;;
63370;SDS011;72561;48.336;14.472;2024-01-10T03:38:33;6.15;;;4.70;;
63370;SDS011;72561;48.336;14.472;2024-01-10T03:40:15;6.95;;;4.82;;
63370;SDS011;72561;48.336;14.472;2024-01-10T03:41:58;6.63;;;4.78;;
63370;SDS011;72561;48.336;14.472;2024-01-10T03:43:40;6.43;;;4.60;;
63370;SDS011;72561;48.336;14.472;2024-01-10T03:45:21;5.75;;;4.18;;
63370;SDS011;72561;48.336;14.472;2024-01-10T03:47:03;5.78;;;4.22;;
63370;SDS011;72561;48.336;14.472;2024-01-10T03:48:45;6.20;;;4.32;;
63370;SDS011;72561;48.336;14.472;2024-01-10T03:50:27;5.53;;;4.10;;
63370;SDS011;72561;48.336;14.472;2024-01-10T03:52:08;7.18;;;4.60;;
63370;SDS011;72561;48.336;14.472;2024-01-10T03:53:51;6.95;;;4.63;;
63370;SDS011;72561;48.336;14.472;2024-01-10T03:55:34;5.32;;;3.88;;
63370;SDS011;72561;48.336;14.472;2024-01-10T03:57:15;5.97;;;4.50;;
63370;SDS011;72561;48.336;14.472;2024-01-10T03:58:57;5.70;;;3.88;;
63370;SDS011;72561;48.336;14.472;2024-01-10T04:00:39;6.05;;;4.40;;
63370;SDS011;72561;48.336;14.472;2024-01-10T04:02:20;5.53;;;4.40;;
63370;SDS011;72561;48.336;14.472;2024-01-10T04:04:01;5.95;;;4.22;;
63370;SDS011;72561;48.336;14.472;2024-01-10T04:05:43;5.53;;;3.93;;
63370;SDS011;72561;48.336;14.472;2024-01-10T04:07:25;6.15;;;4.50;;
63370;SDS011;72561;48.336;14.472;2024-01-10T04:09:09;5.78;;;4.13;;
63370;SDS011;72561;48.336;14.472;2024-01-10T04:10:50;5.13;;;3.90;;
63370;SDS011;72561;48.336;14.472;2024-01-10T04:12:31;6.07;;;4.40;;
63370;SDS011;72561;48.336;14.472;2024-01-10T04:14:12;6.05;;;4.60;;
63370;SDS011;72561;48.336;14.472;2024-01-10T04:15:53;6.25;;;4.10;;
63370;SDS011;72561;48.336;14.472;2024-01-10T04:17:34;6.00;;;4.63;;
63370;SDS011;72561;48.336;14.472;2024-01-10T04:19:16;5.68;;;4.18;;
63370;SDS011;72561;48.336;14.472;2024-01-10T04:20:57;6.80;;;4.40;;
63370;SDS011;72561;48.336;14.472;2024-01-10T04:22:38;6.20;;;4.57;;
63370;SDS011;72561;48.336;14.472;2024-01-10T04:24:21;6.97;;;4.32;;
63370;SDS011;72561;48.336;14.472;2024-01-10T04:26:02;5.82;;;4.28;;
63370;SDS011;72561;48.336;14.472;2024-01-10T04:27:43;5.90;;;4.30;;
63370;SDS011;72561;48.336;14.472;2024-01-10T04:29:24;5.75;;;4.20;;
63370;SDS011;72561;48.336;14.472;2024-01-10T04:31:05;5.72;;;4.32;;
63370;SDS011;72561;48.336;14.472;2024-01-10T04:32:46;6.45;;;4.40;;
63370;SDS011;72561;48.336;14.472;2024-01-10T04:34:27;5.95;;;4.07;;
63370;SDS011;72561;48.336;14.472;2024-01-10T04:36:09;5.95;;;4.05;;
63370;SDS011;72561;48.336;14.472;2024-01-10T04:37:50;5.95;;;4.40;;
63370;SDS011;72561;48.336;14.472;2024-01-10T04:39:33;6.53;;;4.35;;
63370;SDS011;72561;48.336;14.472;2024-01-10T04:41:14;8.63;;;4.50;;
63370;SDS011;72561;48.336;14.472;2024-01-10T04:42:55;6.43;;;4.55;;
63370;SDS011;72561;48.336;14.472;2024-01-10T04:44:36;6.25;;;4.35;;
63370;SDS011;72561;48.336;14.472;2024-01-10T04:46:18;6.72;;;3.88;;
63370;SDS011;72561;48.336;14.472;2024-01-10T04:47:59;6.05;;;4.28;;
63370;SDS011;72561;48.336;14.472;2024-01-10T04:49:40;6.05;;;3.97;;
63370;SDS011;72561;48.336;14.472;2024-01-10T04:51:21;5.68;;;4.28;;
63370;SDS011;72561;48.336;14.472;2024-01-10T04:53:02;6.22;;;4.05;;
63370;SDS011;72561;48.336;14.472;2024-01-10T04:54:45;8.93;;;4.28;;
63370;SDS011;72561;48.336;14.472;2024-01-10T04:56:26;6.25;;;4.28;;
63370;SDS011;72561;48.336;14.472;2024-01-10T04:58:07;6.40;;;4.00;;
63370;SDS011;72561;48.336;14.472;2024-01-10T04:59:49;5.85;;;3.80;;
63370;SDS011;72561;48.336;14.472;2024-01-10T05:01:30;6.22;;;3.90;;
63370;SDS011;72561;48.336;14.472;2024-01-10T05:03:12;5.88;;;4.18;;
63370;SDS011;72561;48.336;14.472;2024-01-10T05:04:53;6.93;;;3.78;;
63370;SDS011;72561;48.336;14.472;2024-01-10T05:06:34;7.63;;;4.03;;
63370;SDS011;72561;48.336;14.472;2024-01-10T05:08:15;6.07;;;3.88;;
63370;SDS011;72561;48.336;14.472;2024-01-10T05:09:58;5.78;;;3.78;;
63370;SDS011;72561;48.336;14.472;2024-01-10T05:11:39;8.27;;;4.55;;
63370;SDS011;72561;48.336;14.472;2024-01-10T05:13:20;31.23;;;12.53;;
63370;SDS011;72561;48.336;14.472;2024-01-10T05:15:02;34.03;;;12.98;;
63370;SDS011;72561;48.336;14.472;2024-01-10T05:16:43;47.17;;;17.92;;
63370;SDS011;72561;48.336;14.472;2024-01-10T05:18:24;33.72;;;15.65;;
63370;SDS011;72561;48.336;14.472;2024-01-10T05:20:06;27.17;;;13.20;;
63370;SDS011;72561;48.336;14.472;2024-01-10T05:21:48;28.45;;;13.48;;
63370;SDS011;72561;48.336;14.472;2024-01-10T05:23:29;21.75;;;11.05;;
63370;SDS011;72561;48.336;14.472;2024-01-10T05:25:12;21.15;;;11.25;;
63370;SDS011;72561;48.336;14.472;2024-01-10T05:26:53;32.65;;;12.55;;
63370;SDS011;72561;48.336;14.472;2024-01-10T05:28:34;30.85;;;12.50;;
63370;SDS011;72561;48.336;14.472;2024-01-10T05:30:15;40.60;;;16.73;;
63370;SDS011;72561;48.336;14.472;2024-01-10T05:31:56;33.00;;;17.15;;
63370;SDS011;72561;48.336;14.472;2024-01-10T05:33:38;32.42;;;14.93;;
63370;SDS011;72561;48.336;14.472;2024-01-10T05:35:19;30.90;;;13.60;;
63370;SDS011;72561;48.336;14.472;2024-01-10T05:38:12;29.27;;;12.70;;
63370;SDS011;72561;48.336;14.472;2024-01-10T05:39:53;25.15;;;12.88;;
63370;SDS011;72561;48.336;14.472;2024-01-10T05:41:35;29.40;;;14.43;;
63370;SDS011;72561;48.336;14.472;2024-01-10T05:43:16;29.83;;;14.20;;
63370;SDS011;72561;48.336;14.472;2024-01-10T05:44:57;30.95;;;13.50;;
63370;SDS011;72561;48.336;14.472;2024-01-10T05:46:38;27.10;;;13.70;;
63370;SDS011;72561;48.336;14.472;2024-01-10T05:48:19;29.77;;;13.73;;
63370;SDS011;72561;48.336;14.472;2024-01-10T05:50:00;26.63;;;13.40;;
63370;SDS011;72561;48.336;14.472;2024-01-10T05:51:42;33.33;;;14.40;;
63370;SDS011;72561;48.336;14.472;2024-01-10T05:53:24;32.00;;;14.50;;
63370;SDS011;72561;48.336;14.472;2024-01-10T05:55:06;25.73;;;13.00;;
63370;SDS011;72561;48.336;14.472;2024-01-10T05:56:48;28.95;;;14.20;;
63370;SDS011;72561;48.336;14.472;2024-01-10T05:58:29;27.55;;;13.95;;
63370;SDS011;72561;48.336;14.472;2024-01-10T06:00:11;28.83;;;13.95;;
63370;SDS011;72561;48.336;14.472;2024-01-10T06:01:54;28.98;;;13.65;;
63370;SDS011;72561;48.336;14.472;2024-01-10T06:03:35;24.80;;;13.45;;
63370;SDS011;72561;48.336;14.472;2024-01-10T06:05:16;25.00;;;12.02;;
63370;SDS011;72561;48.336;14.472;2024-01-10T06:06:57;24.42;;;12.85;;
63370;SDS011;72561;48.336;14.472;2024-01-10T06:08:40;27.13;;;12.75;;
63370;SDS011;72561;48.336;14.472;2024-01-10T06:10:21;24.52;;;13.07;;
63370;SDS011;72561;48.336;14.472;2024-01-10T06:12:03;26.75;;;13.65;;
63370;SDS011;72561;48.336;14.472;2024-01-10T06:13:45;27.50;;;13.88;;
63370;SDS011;72561;48.336;14.472;2024-01-10T06:15:26;29.98;;;13.65;;
63370;SDS011;72561;48.336;14.472;2024-01-10T06:17:07;24.67;;;12.90;;
63370;SDS011;72561;48.336;14.472;2024-01-10T06:18:48;21.88;;;11.85;;
63370;SDS011;72561;48.336;14.472;2024-01-10T06:20:29;21.30;;;12.23;;
63370;SDS011;72561;48.336;14.472;2024-01-10T06:22:11;22.65;;;12.27;;
63370;SDS011;72561;48.336;14.472;2024-01-10T06:23:53;22.77;;;12.50;;
63370;SDS011;72561;48.336;14.472;2024-01-10T06:25:34;20.00;;;11.25;;
63370;SDS011;72561;48.336;14.472;2024-01-10T06:27:15;22.15;;;11.60;;
63370;SDS011;72561;48.336;14.472;2024-01-10T06:28:57;21.25;;;11.32;;
63370;SDS011;72561;48.336;14.472;2024-01-10T06:30:38;22.48;;;11.90;;
63370;SDS011;72561;48.336;14.472;2024-01-10T06:32:19;23.52;;;12.38;;
63370;SDS011;72561;48.336;14.472;2024-01-10T06:34:00;23.25;;;12.15;;
63370;SDS011;72561;48.336;14.472;2024-01-10T06:35:41;21.25;;;11.80;;
63370;SDS011;72561;48.336;14.472;2024-01-10T06:37:22;17.38;;;10.38;;
63370;SDS011;72561;48.336;14.472;2024-01-10T06:39:05;21.15;;;11.95;;
63370;SDS011;72561;48.336;14.472;2024-01-10T06:40:46;20.77;;;12.38;;
63370;SDS011;72561;48.336;14.472;2024-01-10T06:42:27;19.25;;;11.98;;
63370;SDS011;72561;48.336;14.472;2024-01-10T06:44:08;19.85;;;10.50;;
63370;SDS011;72561;48.336;14.472;2024-01-10T06:45:49;18.13;;;11.43;;
63370;SDS011;72561;48.336;14.472;2024-01-10T06:47:30;19.58;;;11.20;;
63370;SDS011;72561;48.336;14.472;2024-01-10T06:49:11;18.75;;;10.88;;
63370;SDS011;72561;48.336;14.472;2024-01-10T06:50:53;18.85;;;11.18;;
63370;SDS011;72561;48.336;14.472;2024-01-10T06:52:34;21.00;;;11.77;;
63370;SDS011;72561;48.336;14.472;2024-01-10T06:54:17;17.85;;;10.93;;
63370;SDS011;72561;48.336;14.472;2024-01-10T06:55:59;18.58;;;10.95;;
63370;SDS011;72561;48.336;14.472;2024-01-10T06:57:40;19.58;;;11.13;;
63370;SDS011;72561;48.336;14.472;2024-01-10T06:59:21;17.80;;;10.88;;
63370;SDS011;72561;48.336;14.472;2024-01-10T07:01:02;19.45;;;10.77;;
63370;SDS011;72561;48.336;14.472;2024-01-10T07:02:43;19.25;;;10.50;;
63370;SDS011;72561;48.336;14.472;2024-01-10T07:04:24;17.73;;;10.90;;
63370;SDS011;72561;48.336;14.472;2024-01-10T07:06:06;18.50;;;10.50;;
63370;SDS011;72561;48.336;14.472;2024-01-10T07:07:47;18.55;;;9.85;;
63370;SDS011;72561;48.336;14.472;2024-01-10T07:09:29;17.27;;;10.35;;
63370;SDS011;72561;48.336;14.472;2024-01-10T07:11:10;16.23;;;10.65;;
63370;SDS011;72561;48.336;14.472;2024-01-10T07:12:51;17.23;;;10.10;;
63370;SDS011;72561;48.336;14.472;2024-01-10T07:14:33;19.10;;;10.10;;
63370;SDS011;72561;48.336;14.472;2024-01-10T07:16:14;14.40;;;9.50;;
63370;SDS011;72561;48.336;14.472;2024-01-10T07:17:55;18.13;;;10.25;;
63370;SDS011;72561;48.336;14.472;2024-01-10T07:19:36;18.38;;;10.45;;
63370;SDS011;72561;48.336;14.472;2024-01-10T07:21:17;18.23;;;10.75;;
63370;SDS011;72561;48.336;14.472;2024-01-10T07:22:58;14.10;;;9.50;;
63370;SDS011;72561;48.336;14.472;2024-01-10T07:24:41;15.60;;;9.68;;
63370;SDS011;72561;48.336;14.472;2024-01-10T07:26:22;16.17;;;9.43;;
63370;SDS011;72561;48.336;14.472;2024-01-10T07:28:03;16.10;;;9.55;;
63370;SDS011;72561;48.336;14.472;2024-01-10T07:29:45;16.60;;;9.35;;
63370;SDS011;72561;48.336;14.472;2024-01-10T07:31:26;13.00;;;8.55;;
63370;SDS011;72561;48.336;14.472;2024-01-10T07:33:07;12.20;;;8.25;;
63370;SDS011;72561;48.336;14.472;2024-01-10T07:34:48;15.40;;;9.80;;
63370;SDS011;72561;48.336;14.472;2024-01-10T07:36:29;15.52;;;9.65;;
63370;SDS011;72561;48.336;14.472;2024-01-10T07:38:10;14.57;;;9.10;;
63370;SDS011;72561;48.336;14.472;2024-01-10T07:39:53;14.10;;;8.75;;
63370;SDS011;72561;48.336;14.472;2024-01-10T07:41:34;13.80;;;8.30;;
63370;SDS011;72561;48.336;14.472;2024-01-10T07:43:15;12.60;;;8.63;;
63370;SDS011;72561;48.336;14.472;2024-01-10T07:44:56;15.38;;;8.88;;
63370;SDS011;72561;48.336;14.472;2024-01-10T07:46:37;14.43;;;9.30;;
63370;SDS011;72561;48.336;14.472;2024-01-10T07:48:18;13.35;;;8.85;;
63370;SDS011;72561;48.336;14.472;2024-01-10T07:50:00;13.43;;;8.40;;
63370;SDS011;72561;48.336;14.472;2024-01-10T07:51:41;15.68;;;9.27;;
63370;SDS011;72561;48.336;14.472;2024-01-10T07:53:22;15.25;;;8.73;;
63370;SDS011;72561;48.336;14.472;2024-01-10T07:55:05;15.27;;;8.48;;
63370;SDS011;72561;48.336;14.472;2024-01-10T07:56:46;15.15;;;8.43;;
63370;SDS011;72561;48.336;14.472;2024-01-10T07:58:27;14.85;;;8.75;;
63370;SDS011;72561;48.336;14.472;2024-01-10T08:00:09;14.05;;;8.98;;
63370;SDS011;72561;48.336;14.472;2024-01-10T08:01:54;12.57;;;8.10;;
63370;SDS011;72561;48.336;14.472;2024-01-10T08:03:36;11.15;;;7.72;;
63370;SDS011;72561;48.336;14.472;2024-01-10T08:05:17;13.73;;;8.05;;
63370;SDS011;72561;48.336;14.472;2024-01-10T08:06:58;13.95;;;8.75;;
63370;SDS011;72561;48.336;14.472;2024-01-10T08:08:39;14.15;;;8.25;;
63370;SDS011;72561;48.336;14.472;2024-01-10T08:10:22;13.75;;;8.13;;
63370;SDS011;72561;48.336;14.472;2024-01-10T08:12:03;13.40;;;7.50;;
63370;SDS011;72561;48.336;14.472;2024-01-10T08:13:45;12.93;;;8.05;;
63370;SDS011;72561;48.336;14.472;2024-01-10T08:15:26;10.20;;;7.22;;
63370;SDS011;72561;48.336;14.472;2024-01-10T08:17:07;14.75;;;8.35;;
63370;SDS011;72561;48.336;14.472;2024-01-10T08:18:48;12.13;;;7.30;;
63370;SDS011;72561;48.336;14.472;2024-01-10T08:20:29;12.32;;;7.13;;
63370;SDS011;72561;48.336;14.472;2024-01-10T08:22:11;13.52;;;8.48;;
63370;SDS011;72561;48.336;14.472;2024-01-10T08:23:52;13.07;;;7.78;;
63370;SDS011;72561;48.336;14.472;2024-01-10T08:25:34;11.65;;;8.02;;
63370;SDS011;72561;48.336;14.472;2024-01-10T08:27:15;12.63;;;7.65;;
63370;SDS011;72561;48.336;14.472;2024-01-10T08:28:56;11.32;;;7.38;;
63370;SDS011;72561;48.336;14.472;2024-01-10T08:30:38;11.27;;;7.10;;
63370;SDS011;72561;48.336;14.472;2024-01-10T08:32:19;12.02;;;7.93;;
63370;SDS011;72561;48.336;14.472;2024-01-10T08:34:00;11.15;;;7.40;;
63370;SDS011;72561;48.336;14.472;2024-01-10T08:35:41;11.30;;;7.45;;
63370;SDS011;72561;48.336;14.472;2024-01-10T08:37:22;10.32;;;7.15;;
63370;SDS011;72561;48.336;14.472;2024-01-10T08:39:03;12.30;;;7.43;;
63370;SDS011;72561;48.336;14.472;2024-01-10T08:40:46;11.23;;;7.40;;
63370;SDS011;72561;48.336;14.472;2024-01-10T08:42:27;11.48;;;7.22;;
63370;SDS011;72561;48.336;14.472;2024-01-10T08:44:08;11.85;;;7.32;;
63370;SDS011;72561;48.336;14.472;2024-01-10T08:45:50;9.88;;;6.93;;
63370;SDS011;72561;48.336;14.472;2024-01-10T08:47:31;11.23;;;7.85;;
63370;SDS011;72561;48.336;14.472;2024-01-10T08:49:12;10.52;;;7.47;;
63370;SDS011;72561;48.336;14.472;2024-01-10T08:50:53;11.93;;;7.53;;
63370;SDS011;72561;48.336;14.472;2024-01-10T08:52:35;10.85;;;7.20;;
63370;SDS011;72561;48.336;14.472;2024-01-10T08:54:16;10.10;;;6.72;;
63370;SDS011;72561;48.336;14.472;2024-01-10T08:55:58;10.73;;;7.10;;
63370;SDS011;72561;48.336;14.472;2024-01-10T08:57:39;10.93;;;7.35;;
63370;SDS011;72561;48.336;14.472;2024-01-10T08:59:21;9.98;;;6.63;;
63370;SDS011;72561;48.336;14.472;2024-01-10T09:01:02;8.80;;;6.32;;
63370;SDS011;72561;48.336;14.472;2024-01-10T09:02:44;10.30;;;6.75;;
63370;SDS011;72561;48.336;14.472;2024-01-10T09:04:25;9.68;;;6.70;;
63370;SDS011;72561;48.336;14.472;2024-01-10T09:06:06;10.07;;;7.20;;
63370;SDS011;72561;48.336;14.472;2024-01-10T09:07:47;10.70;;;6.53;;
63370;SDS011;72561;48.336;14.472;2024-01-10T09:09:29;10.23;;;6.57;;
63370;SDS011;72561;48.336;14.472;2024-01-10T09:11:11;11.70;;;7.18;;
63370;SDS011;72561;48.336;14.472;2024-01-10T09:12:53;11.15;;;6.80;;
63370;SDS011;72561;48.336;14.472;2024-01-10T09:14:34;9.63;;;6.82;;
63370;SDS011;72561;48.336;14.472;2024-01-10T09:16:16;8.35;;;5.78;;
63370;SDS011;72561;48.336;14.472;2024-01-10T09:17:57;9.48;;;6.60;;
63370;SDS011;72561;48.336;14.472;2024-01-10T09:19:38;10.52;;;6.68;;
63370;SDS011;72561;48.336;14.472;2024-01-10T09:21:19;9.25;;;6.65;;
63370;SDS011;72561;48.336;14.472;2024-01-10T09:23:01;10.10;;;6.63;;
63370;SDS011;72561;48.336;14.472;2024-01-10T09:24:42;10.50;;;7.10;;
63370;SDS011;72561;48.336;14.472;2024-01-10T09:26:25;10.65;;;6.85;;
63370;SDS011;72561;48.336;14.472;2024-01-10T09:28:06;9.38;;;6.50;;
63370;SDS011;72561;48.336;14.472;2024-01-10T09:29:47;10.10;;;6.43;;
63370;SDS011;72561;48.336;14.472;2024-01-10T09:31:28;9.50;;;6.63;;
63370;SDS011;72561;48.336;14.472;2024-01-10T09:33:09;9.55;;;6.70;;
63370;SDS011;72561;48.336;14.472;2024-01-10T09:34:51;10.30;;;7.00;;
63370;SDS011;72561;48.336;14.472;2024-01-10T09:36:32;10.13;;;6.70;;
63370;SDS011;72561;48.336;14.472;2024-01-10T09:38:13;8.98;;;6.47;;
63370;SDS011;72561;48.336;14.472;2024-01-10T09:39:54;9.88;;;7.30;;
63370;SDS011;72561;48.336;14.472;2024-01-10T09:41:37;9.10;;;6.32;;
63370;SDS011;72561;48.336;14.472;2024-01-10T09:43:29;9.90;;;6.57;;
63370;SDS011;72561;48.336;14.472;2024-01-10T09:45:11;8.77;;;6.68;;
63370;SDS011;72561;48.336;14.472;2024-01-10T09:46:53;9.32;;;7.13;;
63370;SDS011;72561;48.336;14.472;2024-01-10T09:48:35;9.73;;;6.80;;
63370;SDS011;72561;48.336;14.472;2024-01-10T09:50:16;9.25;;;6.63;;
63370;SDS011;72561;48.336;14.472;2024-01-10T09:51:58;9.63;;;6.95;;
63370;SDS011;72561;48.336;14.472;2024-01-10T09:53:40;9.40;;;6.53;;
63370;SDS011;72561;48.336;14.472;2024-01-10T09:55:24;9.30;;;6.88;;
63370;SDS011;72561;48.336;14.472;2024-01-10T09:57:12;10.30;;;7.03;;
63370;SDS011;72561;48.336;14.472;2024-01-10T09:58:53;8.35;;;6.32;;